ADDS METAR Data INFO
IDs: Format: Raw Decoded Include TAF

Data at: 0922 UTC 17 Oct 2017

KUNO 170853Z AUTO 00000KT 10SM CLR 04/02 A3031 RMK AO2 SLP264 T00390022 58000
KUNO 170753Z AUTO 00000KT 10SM CLR 04/02 A3032 RMK AO2 SLP266 T00390022
KUNO 170653Z AUTO 00000KT 10SM CLR 04/02 A3032 RMK AO2 SLP267 T00390022
KUNO 170553Z AUTO 00000KT 10SM CLR 05/02 A3032 RMK AO2 SLP265 T00500022 10128 20044 402060044 58005
KUNO 170453Z AUTO 00000KT 10SM CLR 06/03 A3032 RMK AO2 SLP267 T00560033
KUNO 170353Z AUTO 00000KT 10SM CLR 06/04 A3033 RMK AO2 SLP270 T00610039
KUNO 170253Z AUTO 00000KT 10SM CLR 07/04 A3033 RMK AO2 SLP271 T00670039 51007
KUNO 170153Z AUTO 00000KT 10SM CLR 07/04 A3032 RMK AO2 SLP269 T00720039
KUNO 170053Z AUTO 00000KT 10SM CLR 09/04 A3032 RMK AO2 SLP269 T00940039
KUNO 162353Z AUTO 00000KT 10SM CLR 12/04 A3031 RMK AO2 SLP265 T01220039 10206 20117 55003
KUNO 162253Z AUTO 36003KT 10SM CLR 18/01 A3031 RMK AO2 SLP260 T01780006
KUNO 162153Z AUTO 00000KT 10SM CLR 19/M01 A3031 RMK AO2 SLP262 T01941006
KUNO 162053Z AUTO VRB03KT 10SM CLR 19/M01 A3032 RMK AO2 SLP264 T01941011 56029
KUNO 161953Z AUTO VRB05KT 10SM CLR 19/M01 A3034 RMK AO2 SLP274 T01891006
KUNO 161853Z AUTO 07007KT 10SM CLR 19/00 A3037 RMK AO2 SLP282 T01890000
KUNO 161753Z AUTO 07007KT 10SM CLR 18/01 A3041 RMK AO2 SLP296 T01780006 10189 20044 58007 $
KUNO 161653Z AUTO VRB06KT 10SM CLR 17/02 A3043 RMK AO2 SLP302 T01720017 $
KUNO 161553Z AUTO 06008KT 10SM CLR 15/01 A3043 RMK AO2 SLP303 T01500011 $
KUNO 161453Z AUTO 03005KT 10SM CLR 13/05 A3043 RMK AO2 SLP305 T01330050 53014 $
KUNO 161353Z AUTO VRB03KT 10SM CLR 11/06 A3042 RMK AO2 SLP301 T01060061 $
KUNO 161253Z AUTO 00000KT 10SM CLR 06/04 A3040 RMK AO2 SLP295 T00610044 $
KUNO 161153Z AUTO 00000KT 10SM CLR 06/03 A3039 RMK AO2 SLP292 70007 T00610033 10078 20061 51007 $
KUNO 161053Z AUTO 36003KT 10SM CLR 06/04 A3038 RMK AO2 SLP288 T00610039 $
KUNO 160953Z AUTO 35005KT 10SM CLR 07/04 A3038 RMK AO2 SLP285 T00670039 $
KUNO 160853Z AUTO 34004KT 10SM CLR 07/04 A3037 RMK AO2 SLP281 T00670044 51004 $
KUNO 160753Z AUTO 32003KT 10SM CLR 07/04 A3037 RMK AO2 SLP280 T00670044 $
KUNO 160653Z AUTO 34004KT 10SM CLR 08/05 A3036 RMK AO2 SLP279 T00780050 $
KUNO 160553Z AUTO 34003KT 10SM CLR 08/05 A3036 RMK AO2 SLP278 T00780050 10133 20078 402390078 51006 $
KUNO 160453Z AUTO 00000KT 10SM CLR 08/05 A3036 RMK AO2 SLP277 T00830050 $
KUNO 160353Z AUTO 34003KT 10SM CLR 09/05 A3035 RMK AO2 SLP277 T00940050 $
KUNO 160253Z AUTO 35005KT 10SM CLR 10/05 A3034 RMK AO2 SLP273 T01000050 51020 $
KUNO 160153Z AUTO 34004KT 10SM CLR 11/05 A3033 RMK AO2 SLP269 T01060050 $
KUNO 160053Z AUTO 33005KT 10SM CLR 12/05 A3030 RMK AO2 SLP260 T01170050 $
KUNO 152353Z AUTO 34006KT 10SM CLR 13/05 A3028 RMK AO2 SLP249 T01330050 10200 20133 53015 $
KUNO 152253Z AUTO 35008KT 10SM CLR 16/05 A3025 RMK AO2 SLP238 T01610050 $
KUNO 152153Z AUTO 33012KT 10SM CLR 18/04 A3024 RMK AO2 SLP233 T01830044 $